TFM - Tactical Decision Aid
ID: Runway Winds: CIG/VIS Threshold:

KBWI - Baltimore-Washington, MD, US

Updated at: 2131 UTC 17 Jun 2019
Latest TAF at: 2101 UTC 17 Jun 2019

TAF Board

Time2123Z 17/22Z 17/23Z 18/00Z 18/01Z 18/02Z 18/03Z 18/04Z 18/05Z 18/06Z 18/07Z 18/08Z 18/09Z 18/10Z>>
Type OBS PRVL PRVL PRVL PRVL PRVL PRVL PRVL PRVL PRVL PRVL PRVL PRVL PRVL
VIS 10 >6 >6 >6 >6 >6 >6 >6 >6 >6 >6 >6 >6 >6
CIG 60 50 50 50 50 50 50 50 50 50 50 50 50 50
Cover BKN BKN BKN BKN BKN BKN BKN BKN BKN BKN BKN BKN BKN BKN
FltCat VFR VFR VFR VFR VFR VFR VFR VFR VFR VFR VFR VFR VFR VFR
WX -- VCTS VCTS VCTS VCTS -- -- -- -- -- -- -- -- --
WDir 130 300 300 300 300 VRB VRB VRB VRB VRB VRB VRB VRB VRB
WSpd 5 5 5 5 5 3 3 3 3 3 3 3 3 3
WGst -- -- -- -- -- -- -- -- -- -- -- -- -- --

TDA Impact Legend

  None Marginal Slight Moderate High
Visibility (sm) >5 3≤X≤5 1≤X<3 0.5≤X<1 <0.5
Ceiling (100 ft) >30 10≤X≤30 4≤X<10 2≤X<4 <2
Wind Speed (kt) <15 15≤X<25 25≤X<30 ≥30
Wind Gust (kt) <15 15≤X<25 25≤X<35 ≥35
Weather No Wx Reported VCTS -TS,-FZRA TS,FZRA +TS,+FZRA
TAF
KBWI 172101Z 1721/1824 25020G45KT 4SM TSRA BR BKN035CB
  FM172130 30005KT P6SM VCTS BKN050CB
  FM180200 VRB03KT P6SM BKN050
  FM181300 23006KT P6SM BKN100


METAR
KBWI 172123Z 13005KT 10SM FEW039 BKN060CB BKN100 BKN160 BKN250 25/22 A2996 RMK AO2 RAE23 TSE23 CB SE MOV E AND CB NW MOV E P0009 T02500222
KBWI 172103Z 17005KT 5SM R10/3500VP6000FT -TSRA BR FEW039 BKN060CB BKN100 BKN160 BKN250 26/23 A2996 RMK AO2 LTG DSNT W OCNL LTGCC E TS SE MOV E P0009 T02560233
KBWI 172058Z 18007KT 1 1/2SM R10/3500VP6000FT TSRA FEW039 BKN060CB BKN100 BKN160 BKN250 26/23 A2996 RMK AO2 OCNL LTGCCCG OHD TS OHD MOV E P0008 T02560228
KBWI 172054Z 26007KT 220V280 4SM R10/3500VP6000FT TSRA SCT060CB BKN100 BKN160 BKN250 26/23 A2995 RMK AO2 RAE17B41 TSE17B41 SLP142 OCNL LTGCCCG OHD TS OHD MOV E P0008 60015 T02610233 58005
KBWI 172041Z 10004KT 10SM -TSRA SCT060CB BKN100 BKN160 BKN250 28/23 A2993 RMK AO2 RAE17B41 TSE17B41 OCNL LTGCCCG OHD TS OHD MOV E P0000 T02780228
KBWI 172017Z 13005KT 10SM SCT060CB BKN100 BKN160 BKN250 28/23 A2994 RMK AO2 RAE17 TSE17 CB SE MOV E AND CB W MOV SE P0000 T02780228
KBWI 171954Z 13004KT 6SM -TSRA BKN055CB BKN070 BKN160 BKN250 25/22 A2997 RMK AO2 RAB09 TSB45 SLP145 OCNL LTGIC SE TS SW MOV SE P0007 T02500222
KBWI 171945Z 13005KT 6SM R10/6000VP6000FT -TSRA BKN055CB BKN070 BKN160 BKN250 25/22 A2997 RMK AO2 RAB09 TSB45 OCNL LTGIC SE TS SW MOV SE P0007 T02500217
KBWI 171909Z 26005KT 9SM -RA SCT060CB BKN090 BKN160 BKN250 31/19 A2996 RMK AO2 RAB09 CB W MOV E P0000 T03110189
KBWI 171854Z 28006KT 10SM SCT060 BKN090 BKN160 BKN250 32/19 A2996 RMK AO2 SLP144 T03170189

Radar Display
Forecast Discussion